Home   |   Ausschreibung   |   Anmeldung   |   Ablauf   |   Ergebnisse   |   Impressionen   |   Chronik   |   Sponsoren   |   Anreise   |   Impressum
 
       Ergebnisse 2006 im 9,2 km Hauptlauf der Männer
 
Ak.M Platz Name Verein Start-Nr. Zeit Platz Gesamt
  1 Berger, Steffen LAC Berlin 2 00:30:43 1
  2 Lerch, Peter LAC Berlin 216 00:31:07 2
  3 Stephan, Sascha LAC Berlin 3 00:31:14 3
  4 Dietrich, Axel KSC Strausberg Leichtathletik 37 00:31:26 4
  5 Krüger, Carsten KSC Strausberg Leichtathletik 30 00:31:59 5
  6 Nitzschke, Daniel LAC Berlin 225 00:32:16 6
  7 Schulz, Patrick SC Potsdam 2490 00:32:20 7
  8 Peper, Christian KSC Strausberg Leichtathletik 31 00:32:31 8
  9 Leitner, Martin privat 2482 00:32:58 9
  10 Mehlberg, Marcus Templin 357 00:33:04 10
  20 Krause, Marko Strausberg 339 00:35:14 11
  22 Graff, Andreas LAC Berlin 215 00:35:43 12
  27 Bösche, Christian Berlin 2327 00:36:05 13
  28 Grund, Volker Berlin 64 00:36:08 14
  34 Hildebrandt, Christian LAC Berlin 230 00:37:13 15
  38 Schild, Richard Berlin 61 00:37:32 16
  42 Stieb, Mathias privat 811 00:38:00 17
  48 Reuther, Jan USV Jena 375 00:39:07 18
  53 Klinke, Christian privat 2421 00:39:22 19
  58 Kunert, Rolf 2428 00:39:37 20
  62 Brade, Benjamin Kleiner Eisbär 2250 00:39:48 21
  64 Arnold, David Blau Weiss Petershagen/Eggersdorf 104 00:39:53 22
  70 Brunkow, Nico Volkssport 2491 00:40:12 23
  76 Graupe, Robert Strausberg 337 00:40:21 24
  78 Stölmacker, Christoph CSW 587 00:40:23 25
  93 Riedel, Karsten Müncheberg 264 00:41:12 26
  98 Knecht, Thomas VS 567 00:41:33 27
  99 Knychala, Dennis LC Ron-HILL Berlin 722 00:41:34 28
  102 Mattern, Michael Strausberg 327 00:41:38 29
  105 Mattern, Marco Strausberg 328 00:41:45 30
  128 Gest, Johannes 396 00:42:47 31
  131 Streckfuß, Martin 497 00:42:53 33
  130 Edling, Christopher Blau Weiss Petershagen/Eggersdorf 128 00:42:53 32
  138 Bonin, Peter Strausberg 325 00:43:20 34
  141 Lehmann, Steve 978 00:43:27 35
  146 Krug, Lars privat 558 00:43:56 36
  148 Reichert, Frank 2336 00:44:04 37
  150 Stascheit, Robert Köpenicker Läuferjugend KLJ 2251 00:44:05 38
  168 Liss, Martin KSC Srb 518 00:44:47 39
  177 Jargosch, Michael 802 00:45:03 40
  191 Seelig, Patrick KSC Volleyball 2335 00:45:33 41
  204 Knips, Andreas Bundeswehr Strausberg Luftwaffe 138 00:46:11 42
  205 Rother, Torsten Strausberg 347 00:46:15 43
  213 Thuermann, Marei 793 00:46:35 44
  237 Brommer, Jens Berlin 71 00:47:20 45
  258 Bude, Daniel Erkner 151 00:48:15 46
  265 Lebeck, Kai-Niklas Bundeswehr Strausberg Luftwaffe 139 00:48:26 47
  299 Jeschke, Mathias HC Henickendorf 2432 00:49:24 48
  331 Reichard, Stefan Strausberg 348 00:51:19 49
  365 Graap, Matthias Vogelsdorf 379 00:53:42 50
  367 Thoß, Sebastian 2496 00:53:45 51
  371 Schumann, Sebastian 2495 00:54:05 52
  403 Barsch, Maximilian privat 986 00:56:03 53
  460 Dahlke, Nils 794 01:02:25 54
Ak.M AJug Platz Name Verein Start-Nr. Zeit Platz Gesamt
  29 Ziegler, Romano FC Strausberg 2404 00:36:25 1
  33 Schmidt, Patrick SC Frankfurt Oder 310 00:37:05 2
  52 Hammer, Björn 814 00:39:21 3
  71 Münstermann, Marcus 719 00:40:14 4
  84 Meyfarth, David privat 2423 00:40:39 5
  101 Hammer, Maxim 813 00:41:37 6
  103 Behrbohm, Peter eMule Runnings 955 00:41:39 7
  108 Dittberner, Ralf Strausberg 335 00:42:00 8
Ak.M BJug Platz Name Verein Start-Nr. Zeit Platz Gesamt
  11 Hettler, Andreas LAC Berlin 217 00:33:09 1
  17 Schulze, Nico LAC Berlin 218 00:34:55 2
  39 Schrader, Andre LAC Berlin 224 00:37:39 3
  43 Scheduikat, Ron LAC Berlin 219 00:38:02 4
  51 Friedrich, Pavel 818 00:39:19 5
  55 Schulze, Patrick LAC Berlin 2480 00:39:27 6
  120 Buchda, Kevin Blau Weiss Petershagen/Eggersdorf 97 00:42:26 7
  136 Wardin, Fabian Kyritz 210 00:43:14 8
  153 Omankowsky, Maik 2412 00:44:22 9
  165 Schneider, Stefan Schillerhöhe (Strausberg) 2321 00:44:44 10
  171 Czychi, Markus privat/ Strausberg 290 00:44:50 11
  217 Wachtel, Peter Blau Weiss Petershagen/Eggersdorf 102 00:46:45 12
  218 Wichmann, David Blau Weiss Petershagen/Eggersdorf 98 00:46:45 13
  234 Schöneberger, Kilian Schillerhöhe (Strausberg) 2320 00:47:18 14
  239 Franke, Max 2409 00:47:21 15
  246 Rose, Andy SV Gartenstadt 71.eV 2406 00:47:35 16
  281 Glodek, Jens 535 00:49:00 17
  313 Kettner, Tilman Blau Weiss Petershagen/Eggersdorf 99 00:50:01 18
  413 Zänsch, Eric Berlin 55 00:57:03 19
  453 Faber, Bill Berlin 68 01:00:31 20
Ak.M30 Platz Name Verein Start-Nr. Zeit Platz Gesamt
  31 Lorenz, Christer TSG Wittenberg 563 00:36:53 1
  35 Skeries, Frank BSG Pneumant Fürstenwalde 133 00:37:15 2
  59 Busch, Lars Berlin 62 00:39:41 3
  75 Winkler, Jöran Bundeswehr Strausberg Luftwaffe 137 00:40:19 4
  157 Peschel, Ralf Blau Weiss Petershagen/Eggersdorf 110 00:44:30 5
  232 Pohlan, Sascha Pohlan & Partner Unternehmensberatung 283 00:47:01 6
  238 Riedler, Guido 390 00:47:20 7
  242 Müller, Steffen SOWI-Strausberg 319 00:47:25 8
  245 Wetzig, Jörg 979 00:47:35 9
  251 Kolbinger, André Eggersdorf 148 00:48:01 10
  269 Döppner, Maik HC - Hennickendorf / Hennickendorf 182 00:48:42 11
  320 Zill, Henning Blau Weiss Petershagen/Eggersdorf 126 00:50:30 12
  468 Henning, Danny Pohlan & Partner Unternehmensberatung 284 01:04:24 13
Ak.M35 Platz Name Verein Start-Nr. Zeit Platz Gesamt
  14 Beile, Andy KSC Strausberg Leichtathletik 38 00:34:22 1
  24 Förster, Marc Berliner Wasserratten 87 00:35:50 2
  25 Holtz, Michael 806 00:35:53 3
  45 Koch, Dirk Pneumant Fürstenwalde 2426 00:38:10 4
  60 Reuther, Tobias Chemnitzer LV Megware 141 00:39:43 5
  61 Hansen, Christian SV Eintracht 543 00:39:45 6
  66 Exner, René Bernauer Lauffreunde 2338 00:40:02 7
  72 Liebe, Gerald Fast Followers Strausberg 156 00:40:15 8
  77 May, Torsten Strausberg 349 00:40:21 9
  92 Deichert, Gunnar Blau Weiss Petershagen/Eggersdorf 108 00:41:09 10
  100 Grambauer, Rico privat 2459 00:41:35 11
  107 Dorn, Ralf LC Flitz 234 00:41:48 12
  113 Pissarius, Rico ESV Eberswalde 155 00:42:10 13
  124 Buenger, Ralf August-Herman-Francke Oberschule 15 00:42:32 14
  135 Jodl, Karsten 2444 00:43:11 15
  144 Schmidt, Dietmar I.G.L. Schöneiche 196 00:43:46 16
  154 Tinz, Birger Dauerbrenner Berlin 142 00:44:26 17
  155 Terzer, Olaf KSC Strausberg Leichtathletik 32 00:44:27 18
  174 Grunow, Frank Bruchmühle 131 00:45:01 19
  195 Gojdka, Torsten Strausberg 342 00:45:42 20
  201 Falk, Uwe Hönower Schildkröten 194 00:46:03 21
  203 Deckel, Michael Rüdersdorf 302 00:46:11 22
  210 Hartig, Andreas Rehfelde 295 00:46:20 23
  231 Gille, Bernd Berlin-Lichtenberg 89 00:47:01 24
  247 Sören, Heinz OTS Schadock 277 00:47:40 25
  263 Bethge, Andre LC RON-HILL Berlin 248 00:48:25 26
  267 Gottstein, Frank Eggersdorf 149 00:48:39 27
  270 Brendler, Steffen HC Hennickendorf 184 00:48:42 28
  305 Förster-Rank, Sven Strausberg 329 00:49:41 29
  323 Ruff, Torsten Neuenhagen 270 00:50:35 30
  327 Stephan, Chris Strausberg 344 00:51:06 31
  333 Pienkohs, Andreas Blau Weiss Petershagen/Eggersdorf 107 00:51:31 32
  339 KLemmer, Thomas 816 00:51:56 33
  346 Sarck, Peter privat 832 00:52:23 34
  350 Rühle, Holger Dauerbrenner Berlin 557 00:52:41 35
  354 Hoffmann, Holger SCC Berlin 313 00:52:53 36
  368 Franke, Jörg privat 810 00:53:52 37
  378 Konkel, Enrico Wegendorf 387 00:54:27 38
  398 Schmidt-Heß, Ole 989 00:55:43 39
Ak.M40 Platz Name Verein Start-Nr. Zeit Platz Gesamt
  30 Duchow, André Potsdam 285 00:36:36 1
  41 Sweikowski, Uwe Berlin 26 00:37:50 2
  46 Krause, Thilo Neuzeschdorf 276 00:38:32 3
  49 Thurau, Thomas BSG Pneumant Fürstenwalde 135 00:39:14 4
  50 Stiegler, Jens LAC Berlin 229 00:39:17 5
  54 Matthes, Bodo LC RON-HILL Berlin 242 00:39:23 6
  63 Sachse, Steffen Strausberg 331 00:39:51 7
  68 Zander, Marko 2492 00:40:07 8
  73 Langbecker, Torsten 2473 00:40:17 9
  80 Deutschmann, Ralf Berlin 2315 00:40:29 10
  85 Dorn, Norbert Berlin 52 00:40:41 11
  88 Reuter, Rüdiger Strausberger Paragraphenreiter 350 00:40:58 12
  94 Graf, Olaf 974 00:41:16 13
  96 Wallis, Mike Berlin-Biesdorf 86 00:41:21 14
  116 Schwarzer, Thomas FreiLauf Potsdam 163 00:42:15 15
  125 Reich, Nico Neuenhagen 272 00:42:36 16
  127 Wendland, Thomas 2437 00:42:46 17
  132 Suthau, Uwe Raumausstattung Suthau 291 00:43:02 18
  133 Naujok, Andreas Hennickendorf 189 00:43:06 19
  134 Skulski, Uwe Birkenstein 91 00:43:10 20
  143 Baum, Uwe 2443 00:43:35 21
  159 Holst, Uwe Rüdersdorf 307 00:44:36 22
  161 Bolle, Rainer 976 00:44:38 23
  167 Collier, Michael N2-tauchsport.de 266 00:44:46 24
  170 Czychi, Mattias privat/ Strausberg 289 00:44:50 26
  169 Noack, Steffen TTV Strausberg 91 e.V. 362 00:44:50 25
  175 Bösche, Ronald Berlin 2329 00:45:02 27
  181 Bressel, Ralf SBB Dresden 309 00:45:09 28
  182 Maaß, Peter Rehfelde 293 00:45:13 29
  185 Thomas, Andrej privat 2462 00:45:23 30
  189 Reich, Thorsten Berlin 57 00:45:31 31
  192 Putzger, Frank Berlin Hellersdorf 84 00:45:33 32
  194 Rogoll, Fred Rüdersdorf 2324 00:45:39 33
  199 Hofmann, Bert 2489 00:45:58 34
  206 Kneifeld, Heiko Strausberg 322 00:46:15 35
  211 Kunert, Holger SV Mirabelle 354 00:46:21 36
  215 Kohl, Thomas 2448 00:46:42 37
  226 Schmidt, Birger Blau Weiss Petershagen/Eggersdorf 113 00:46:57 38
  241 Neuke, Jens laufkatze Grünau 232 00:47:24 39
  244 Seider, Karsten Strausberger Paragraphenreiter 351 00:47:32 40
  249 Löbe, Michael Humboldt-Universität-Berlin 195 00:47:50 41
  264 Otto, Andreas Stücken 352 00:48:25 42
  268 Sabin, Frank HC - Hennickendorf / Schöneiche 183 00:48:42 43
  276 Grube, Olaf privat 288 00:48:53 44
  283 Krause, Dietger Strausberg 200 00:49:04 45
  285 Rogausch, Marcus Neuenhagen 2319 00:49:07 46
  286 Hemel, Peter 970 00:49:09 47
  295 Deutschmann, Harald Woltersdorf 2316 00:49:16 49
  296 Franke, Heiko KSC-Strausberg 2411 00:49:17 50
  312 Gutsch, Frank Strausberg 346 00:50:01 51
  315 Mildner, Jens 391 00:50:15 52
  338 Schösser, Frank 399 00:51:55 53
  344 Drescher, Lars Neuenhagen 267 00:52:20 54
  358 Möhr, Norbert LAC Berlin 227 00:53:09 55
  361 Bachmann, Mario privat 2436 00:53:18 56
  362 Belgert, Thomas Altlandsberg 10 00:53:32 57
  364 Zinn, Norbert LG Buchsbaum / Berlin 252 00:53:39 58
  382 Weidner, Andreas Bad Freienwalde 18 00:54:35 59
  385 Himmer, Rocco die Mozarts 2477 00:54:41 60
  396 König, Andreas Strausberg 340 00:55:19 61
  397 Marquardt, Ralf 2439 00:55:41 62
  444 Donner, Andreas Berlin 54 00:59:33 63
  457 Scheffler, Thomas Fsv Insel Neuenhagen 792 01:01:25 64
Ak.M45 Platz Name Verein Start-Nr. Zeit Platz Gesamt
  12 Leitner, Wolf-Rüdiger LG Elmshorn 2483 00:33:45 1
  13 Beyer, Olaf Potsdamer Laufclub 222 00:34:15 2
  15 Ladwig, Marcus KSV 90 Berlin 489 00:34:28 3
  16 Mehrlein, Andreas KSC Strausberg Leichtathletik 39 00:34:40 4
  21 Klaus, Uwe Woltersdorf 388 00:35:19 5
  44 Schüler, Frank KSC Strausberg Leichtathletik 34 00:38:09 6
  65 Behrbohm, Gregor Lokomotive Evpetol 988 00:39:57 7
  81 Hamann, Frank privat 286 00:40:29 8
  87 Hammer, Frank 2497 00:40:49 9
  91 Otto, Fred Blau Weiss Petershagen/Eggersdorf 116 00:41:01 10
  95 Harras, Hans-Jürgen 2447 00:41:19 11
  104 Gest, Friedrich Blau-Weiß Petershagen 129 00:41:40 12
  106 Langhammer, Jens LAC Berlin 226 00:41:48 13
  109 Rohbeck, Gerd Neuenhagen 273 00:42:01 14
  110 Seubert, Ingo 2434 00:42:03 15
  112 Riedel, Peter Müncheberg 263 00:42:06 16
  119 Barthel, Uwe 519 00:42:25 17
  121 Haack, Norbert LV Klemusch Hönow 261 00:42:26 18
  122 Heuschkel, Hartmut Petershagen 280 00:42:29 19
  142 Höfs, Hans-Ulrich 389 00:43:28 20
  162 Stascheit, Frank KSV Ajax Triathlon 2253 00:44:41 21
  163 Czolkos, Frank 2442 00:44:42 22
  166 Göster, Josef SCC Berlin 797 00:44:44 23
  172 Büchler, Siegfried Strausberg 334 00:44:55 24
  173 Büchsenschuß, André SV Mühlenberg SRB 2435 00:44:58 25
  176 Heinrich, Andreas Berlin 78 00:45:03 26
  178 Koch, Frank Bruchmühle 130 00:45:05 27
  179 Voigtländer, Jörg privat 987 00:45:06 28
  183 Parey, Uwe Beauregarder Deichläufer 789 00:45:17 29
  186 Krause, Volker 2405 00:45:28 30
  196 Seibert, Frank Friendly Fitness Studio Strausberg 164 00:45:47 31
  197 Teichler, Lutz 392 00:45:48 32
  200 Kiesewetter, Dieter Hönow 192 00:46:01 33
  227 Rau, Harald IG Postheim Templin 198 00:46:58 34
  235 Schmidt, Andreas Fredersdorf 2418 00:47:18 35
  250 Sebastian, Michael 393 00:47:57 36
  252 Pietrzyk, Roland Berlin 2446 00:48:02 37
  253 Fonzi, Mario Athleticon Bad Freienwalde 14 00:48:04 38
  261 Werner, Thilo Berlin 63 00:48:19 40
  260 Hildebrandt, Rudi TTV Strausberg 91 e.V. 360 00:48:19 39
  271 Handrich, Thomas Vogelsdorf 378 00:48:44 41
  274 Koszinski, Andreas Waldsieversdorf 385 00:48:51 42
  277 Blume, Michael VS Berlin 383 00:48:54 43
  280 Limmert, Siegmar Berlin 45 00:49:00 44
  284 Olschewsky, Matthias Berlin 75 00:49:07 45
  303 Paczkowski, Uwe Rüdersdorf 2323 00:49:35 46
  304 Liesig, Detlef Sportclub Joynes 2487 00:49:39 47
  307 Konrad, Detlef KSC Strausberg Fanfarenzug 2252 00:49:52 48
  314 Zieschank, Gunther Berlin 50 00:50:14 49
  341 Näther, Volker TTV Strausberg 91 e.V. 363 00:52:04 50
  342 Brommer, Olaf Berlin 69 00:52:13 51
  353 Riemer, Jürgen 398 00:52:51 52
  357 Wagner, Ulrich Fredersdorf 162 00:53:00 53
  373 Butzlaff, Dietmar KSC Strausberg 207 00:54:13 54
  377 Förster, Jörg Berlin 81 00:54:24 55
  381 Ungewitter, Gereld Altlandsberg 11 00:54:34 56
  401 Maschke, Peter Bw Erfurt 140 00:55:49 57
  433 Andersen, Christian Vogelsdorf 377 00:58:50 58
  447 Kosarz, Ralf Berlin-Hellersdorf 88 00:59:49 59
Ak.M50 Platz Name Verein Start-Nr. Zeit Platz Gesamt
  19 Pätzig, Dirk LC RON-HILL Berlin 238 00:35:11 1
  23 Degenkolb, Gunnar LAC Berlin 213 00:35:48 2
  32 Krüger, Bodo Rennsteiglaufvereein 300 00:36:58 3
  47 Rosenheinrich, Detlef Rüdersdorf 301 00:39:05 4
  57 Behnke, Detlef KSV 90 Berlin 838 00:39:34 5
  79 Luckow, Norbert privat 2425 00:40:27 6
  83 Krüger, Wilfried KSC Strausberg Leichtathletik 221 00:40:33 7
  117 Brunkahl, Karl-Heinz LAC Berlin 214 00:42:16 8
  123 Oberländer, Werner Berlin 44 00:42:31 9
  126 Witte, Jürgen ForumTeam 158 00:42:41 10
  129 Wenzel, Reno 971 00:42:52 11
  139 Weber, Wolfgang KSC Strausberg Leichtathletik 27 00:43:20 12
  140 Zurek, Arel Frisch auf Fahrland 2438 00:43:26 13
  145 Lerche, Harald 2457 00:43:53 14
  151 Rebel, Dieter 817 00:44:11 15
  156 Grabbert, Manfred 394 00:44:29 16
  164 Heidrich, Hanno Berlin 73 00:44:43 17
  187 Dr. Neumann, Lutz TSV Neuenhagen 733 00:45:29 18
  202 Sengstock, Klaus Blau Weiss Petershagen/Eggersdorf 121 00:46:07 19
  207 Puttin, Christian Strausberg 332 00:46:17 20
  220 Naujoks, Eckhard DAV Sektion Charlottenburg 143 00:46:51 21
  257 Müller, Jörg-Peter 803 00:48:14 22
  266 Masche, Walter privat 2463 00:48:31 23
  275 Stöwner, Uwe Altlandsberg 8 00:48:52 24
  287 Schmidt, Michael Rüdersdorf 303 00:49:09 25
  301 Mousset, Daniel privat 2461 00:49:29 26
  317 Schlange-Schöningen, Stephan Schulzendorf 2256 00:50:20 27
  332 Werner, Jürgen Sanssouci Gym Potsdam e. V. 308 00:51:26 28
  351 Wiese, Robert Ahrensfelde 5 00:52:43 29
  393 Lindner, Detlef Petershagen 2255 00:55:07 30
  416 Meyer, Lothar Blau Weiss Petershagen/Eggersdorf 119 00:57:26 31
Ak.M55 Platz Name Verein Start-Nr. Zeit Platz Gesamt
  36 Dehmel, Manfred Spiridon Berlin 2424 00:37:18 1
  40 Scuda, Werner Berlin 72 00:37:43 2
  97 Sattler, Karl-Hans AFP Berlin 4 00:41:24 3
  190 Hofmann, Werner Helios Berlin 185 00:45:32 4
  278 Winkler, Roland SCC Berlin 839 00:48:56 5
  291 Kuhl, Dietmar KSC Strausberg/Schwimmen 209 00:49:13 6
  325 Simonsohn, Wolfgang Berlin 40 00:50:52 7
  369 Friedrich, Egon LKK Klimatechnik Strausberg 259 00:53:55 8
  399 Kern, Wolfgang Fredersdorf 161 00:55:45 9
  432 Hartmann, Peter Vfl Tegel 2429 00:58:47 10
  440 Buschner, Michael Berlin 77 00:59:28 11
  445 Jaensch, Dieter LC RON-HILL Berlin 241 00:59:34 12
  475 Kunth, Wolfram Volkssport Berlin 381 01:10:26 13
Ak.M60 Platz Name Verein Start-Nr. Zeit Platz Gesamt
  67 Schulze, Hans-Joachim LC Ron-Hill Berlin 2486 00:40:05 1
  180 Hennig, Gerhard Rüdersdorf 306 00:45:08 2
  254 Wegener, Karl-Heinz LG Buchsbaum / Berlin 253 00:48:08 3
  256 Benthin, Hans KSC Strausberg. Abt. Schwimmen 208 00:48:13 4
  289 Laurich, Gunther 2469 00:49:11 5
  298 Schnabel, Rudi GMRLV/Eggersdorf 180 00:49:21 6
  322 Gandl, Eberhard Berlin 82 00:50:34 7
  329 Pietsch, Sieghard FSV Insel Neuenhagen 790 00:51:11 8
  336 David, Ingbert LKK Klimatechnik Strausberg 258 00:51:37 9
  405 Flach, Dr. Max H. Swisttal 356 00:56:15 10
  415 Engler, Martin LC RON-HILL Berlin 237 00:57:18 11
  421 Waschkau, Norbert 977 00:57:45 12
  446 Minuth, Hans-Joachim Rehfelde OT Werder 297 00:59:38 13
  478 Bachnik, Hartmut Blau Weiss Petershagen/Eggersdorf 124 01:13:42 14
Ak.M65 Platz Name Verein Start-Nr. Zeit Platz Gesamt
  69 Budras, Peter LC Ron-Hill Berlin 235 00:40:10 1
  90 Bathe, Lothar Stahl Hennigsdorf 572 00:41:00 2
  137 Beutke, Klaus Friendly Fitness 2326 00:43:19 3
  149 Stüwe, Wolfgang Spiridon Berlin 536 00:44:04 4
  160 Schulz, Arno LKK Klimatechnik 2420 00:44:37 5
  193 Schulz, Harry Strausberg 341 00:45:35 6
  208 Riedel, Kurt Petershagen 279 00:46:19 7
  214 Schlotte, Peter Köpenicker SV Ajax 808 00:46:37 8
  223 Kuhn, Leo Empor Köpenick 150 00:46:53 9
  230 Goetz, Gerhard SV Einheit Ueckermünde 353 00:47:01 10
  240 Lemnitzer, Eberhard Kaulsdorfer OLV 203 00:47:22 11
  248 Teske, Jürgen Kaulsdorfer OLV 202 00:47:47 12
  272 Göhler, Harry AOK Frühstückslauf 13 00:48:46 13
  326 Walter, Dr. Dieter Strausberg 323 00:50:53 14
  340 Hackmann, Peter Heinrich 2481 00:52:02 15
  355 Zinn, Bodo LG Buchsbaum / Berlin 251 00:52:56 16
  356 Gröschel, Dieter GMRLV 2347 00:53:00 17
  394 Hahn, Wolfgang RBB 2334 00:55:13 18
  407 Neumann, Günter 505 00:56:25 19
  408 Grasse, Klaus-Dieter FSV Insel Neuenhagen 798 00:56:27 20
  441 Fethke, Wolfgang Velgaster SV 2431 00:59:32 21
Ak.M70 Platz Name Verein Start-Nr. Zeit Platz Gesamt
  236 Beyer, Gunther TSV Grimma 2494 00:47:19 1
  279 Preller, Horst Spiridon Berlin 320 00:48:58 2
  366 Maiwald, Walter Berlin 66 00:53:44 3
  387 Scholz, Günter Berlin Weißensee 85 00:54:53 4
  411 Waschkau, Dietrich Ajax Berlin 7 00:56:34 5
  420 Gonnermann, Prof.Dr.Bernhard Laufgruppe Parchim 231 00:57:39 6
  472 Bauer, Dieter Volkssport 573 01:06:41 7
Ak.M75 Platz Name Verein Start-Nr. Zeit Platz Gesamt
  375 Köppen, Manfred IG Postheim Templin 201 00:54:19 1
 
«« zurück
 
 
© Kultur- und Sportclub Strausberg e.V. – Abteilung Leichtathletik
Sport- und Erholungspark 6, 15344 Strausberg, Veranstalter: www.ksc-strausberg.de & www.leichtathletik-strausberg.de